Time;durP1;ratioP1;P1;durP2;ratioP2;P2;SDS_P1;SDS_P2;PMS_P1;PMS_P2;Temp;Humidity;BMP_temperature;BMP_pressure;BME280_temperature;BME280_humidity;BME280_pressure;Samples;Min_cycle;Max_cycle;Signal;HPM_P1;HPM_P2
2022/06/17 00:00:32;;;;;;;;;;;;;;;22.23;42.80;95451.53;2067195;28;825;-80
2022/06/17 00:01:37;;;;;;;;;;;;;;;22.24;42.81;95447.81;2066316;28;1692;-80
2022/06/17 00:02:39;;;;;;;;;;;;;;;22.24;42.67;95453.16;2067368;28;1031;-80
2022/06/17 00:03:42;;;;;;;;;;;;;;;22.25;42.62;95449.44;2066822;28;1132;-80
2022/06/17 00:04:45;;;;;;;;;;;;;;;22.22;42.77;95439.16;2066568;28;1570;-81
2022/06/17 00:05:50;;;;;;;;;;;;;;;22.25;42.72;95446.78;2066846;28;1091;-77
2022/06/17 00:06:54;;;;;;;;;;;;;;;22.23;42.68;95443.50;2054928;28;1547;-80
2022/06/17 00:07:57;;;;;;;;;;;;;;;22.25;42.66;95444.09;2059335;28;1617;-79
2022/06/17 00:08:59;;;;;;;;;;;;;;;22.26;42.64;95435.88;2065904;28;1532;-79
2022/06/17 00:10:02;;;;;;;;;;;;;;;22.26;42.58;95446.56;2066542;28;1536;-78
2022/06/17 00:11:11;;;;;;;;;;;;;;;22.25;42.65;95439.59;2066730;28;1654;-79
2022/06/17 00:12:14;;;;;;;;;;;;;;;22.21;42.57;95437.53;2066356;28;2045;-80
2022/06/17 00:13:19;;;;;;;;;;;;;;;22.19;42.86;95436.91;2067091;28;1574;-80
2022/06/17 00:14:23;;;;;;;;;;;;;;;22.18;42.57;95428.06;2066586;28;1554;-79
2022/06/17 00:15:26;;;;;;;;;;;;;;;22.17;42.55;95434.47;2060433;28;1718;-80
2022/06/17 00:16:28;;;;;;;;;;;;;;;22.17;42.92;95425.59;2058713;28;1624;-80
2022/06/17 00:17:33;;;;;;;;;;;;;;;22.18;42.66;95432.59;2055490;28;1290;-80
2022/06/17 00:18:36;;;;;;;;;;;;;;;22.17;42.79;95433.63;2058961;28;1651;-79
2022/06/17 00:19:39;;;;;;;;;;;;;;;22.16;42.79;95429.31;2066104;28;1671;-80
2022/06/17 00:20:43;;;;;;;;;;;;;;;22.14;42.86;95421.50;2067036;28;1535;-81
2022/06/17 00:21:47;;;;;;;;;;;;;;;22.16;42.59;95430.13;2059491;28;1551;-79
2022/06/17 00:22:50;;;;;;;;;;;;;;;22.17;42.48;95425.59;2064430;28;1550;-78
2022/06/17 00:23:52;;;;;;;;;;;;;;;22.15;42.80;95430.34;2059392;28;1231;-79
2022/06/17 00:24:55;;;;;;;;;;;;;;;22.16;42.72;95437.34;2058414;28;1171;-80
2022/06/17 00:25:57;;;;;;;;;;;;;;;22.12;42.74;95440.44;2059273;28;1588;-76
2022/06/17 00:27:00;;;;;;;;;;;;;;;22.11;42.89;95438.81;2060008;28;1676;-77
2022/06/17 00:28:07;;;;;;;;;;;;;;;22.08;42.66;95438.38;2066203;28;1704;-77
2022/06/17 00:29:10;;;;;;;;;;;;;;;22.05;42.62;95439.66;2061900;28;1540;-75
2022/06/17 00:30:16;;;;;;;;;;;;;;;22.06;42.91;95440.47;2062016;28;1655;-75
2022/06/17 00:31:18;;;;;;;;;;;;;;;22.04;42.67;95446.03;2067283;28;1055;-76
2022/06/17 00:32:21;;;;;;;;;;;;;;;22.02;42.63;95440.03;2066089;28;1906;-76
2022/06/17 00:33:25;;;;;;;;;;;;;;;22.04;42.61;95438.00;2066209;28;1101;-76
2022/06/17 00:34:28;;;;;;;;;;;;;;;22.06;42.52;95437.78;2065774;28;1183;-76
2022/06/17 00:35:33;;;;;;;;;;;;;;;22.06;42.60;95438.63;2065427;28;1595;-76
2022/06/17 00:36:35;;;;;;;;;;;;;;;22.07;42.54;95440.25;2061923;28;1547;-76
2022/06/17 00:37:38;;;;;;;;;;;;;;;22.07;42.61;95440.25;2063563;28;1672;-76
2022/06/17 00:38:41;;;;;;;;;;;;;;;22.07;42.62;95437.56;2066481;28;1395;-76
2022/06/17 00:39:43;;;;;;;;;;;;;;;22.07;42.70;95434.88;2066514;28;1056;-77
2022/06/17 00:40:47;;;;;;;;;;;;;;;22.08;42.39;95436.56;2059994;28;1599;-76
2022/06/17 00:41:52;;;;;;;;;;;;;;;22.08;42.33;95433.88;2066167;28;1638;-76
2022/06/17 00:42:56;;;;;;;;;;;;;;;22.08;42.38;95431.19;2066814;28;1567;-77
2022/06/17 00:43:58;;;;;;;;;;;;;;;22.08;42.58;95433.88;2066783;28;1121;-76
2022/06/17 00:45:05;;;;;;;;;;;;;;;22.08;42.37;95436.56;2065858;28;1778;-75
2022/06/17 00:46:12;;;;;;;;;;;;;;;22.07;42.29;95432.22;2066373;28;1599;-76
2022/06/17 00:47:18;;;;;;;;;;;;;;;22.08;42.54;95433.03;2059553;28;1168;-78
2022/06/17 00:48:23;;;;;;;;;;;;;;;22.11;42.37;95435.31;2062926;28;1732;-76
2022/06/17 00:49:33;;;;;;;;;;;;;;;22.08;42.31;95431.19;2063895;28;1523;-75
2022/06/17 00:50:39;;;;;;;;;;;;;;;22.08;42.26;95430.34;2067813;28;1172;-76
2022/06/17 00:51:45;;;;;;;;;;;;;;;22.06;42.51;95425.22;2064629;28;1123;-76
2022/06/17 00:52:50;;;;;;;;;;;;;;;22.06;42.26;95419.88;2064640;28;1894;-76
2022/06/17 00:53:56;;;;;;;;;;;;;;;22.05;42.30;95423.59;2068901;28;1208;-76
2022/06/17 00:55:04;;;;;;;;;;;;;;;22.06;42.44;95417.19;2068211;28;1109;-76
2022/06/17 00:56:12;;;;;;;;;;;;;;;22.10;42.43;95425.63;2067526;28;1519;-75
2022/06/17 00:57:20;;;;;;;;;;;;;;;22.08;42.46;95428.53;2064011;28;1529;-76
2022/06/17 00:58:24;;;;;;;;;;;;;;;22.06;42.48;95430.59;2059844;28;1033;-75
2022/06/17 00:59:28;;;;;;;;;;;;;;;22.06;42.56;95427.91;2060603;28;1590;-75
2022/06/17 01:00:32;;;;;;;;;;;;;;;22.04;42.60;95426.47;2065249;28;1579;-75
2022/06/17 01:01:40;;;;;;;;;;;;;;;22.00;42.43;95431.44;2068506;28;1088;-75
2022/06/17 01:02:45;;;;;;;;;;;;;;;21.98;42.75;95422.78;2064793;28;1177;-75
2022/06/17 01:03:49;;;;;;;;;;;;;;;21.99;42.71;95424.41;2064371;28;1511;-76
2022/06/17 01:04:53;;;;;;;;;;;;;;;21.96;42.50;95421.34;2068179;28;1207;-75
2022/06/17 01:06:02;;;;;;;;;;;;;;;21.96;42.65;95432.88;2067528;28;1496;-76
2022/06/17 01:07:09;;;;;;;;;;;;;;;21.98;42.80;95432.66;2068273;28;830;-76
2022/06/17 01:08:15;;;;;;;;;;;;;;;21.97;42.68;95421.16;2059709;28;1677;-77
2022/06/17 01:10:43;;;;;;;;;;;;;;;21.94;42.43;95424.22;2067584;28;1512;-77
2022/06/17 01:11:49;;;;;;;;;;;;;;;21.93;42.57;95425.22;2067701;28;1220;-76
2022/06/17 01:12:57;;;;;;;;;;;;;;;21.90;42.55;95423.78;2067606;28;1914;-77
2022/06/17 01:14:04;;;;;;;;;;;;;;;21.89;42.44;95413.31;2056959;28;1614;-77
2022/06/17 01:15:10;;;;;;;;;;;;;;;21.90;42.48;95415.75;2056596;28;1515;-76
2022/06/17 01:16:13;;;;;;;;;;;;;;;21.90;42.56;95414.94;2059671;28;1823;-76
2022/06/17 01:17:20;;;;;;;;;;;;;;;21.90;42.46;95415.75;2064216;28;1347;-75
2022/06/17 01:18:22;;;;;;;;;;;;;;;21.88;42.61;95422.34;2067648;28;1618;-76
2022/06/17 01:19:38;;;;;;;;;;;;;;;21.87;42.33;95416.19;2060501;28;1523;-76
2022/06/17 01:20:55;;;;;;;;;;;;;;;21.89;42.70;95424.00;2062551;28;1584;-76
2022/06/17 01:22:03;;;;;;;;;;;;;;;21.88;42.55;95417.00;2067525;28;1053;-76
2022/06/17 01:23:14;;;;;;;;;;;;;;;21.84;42.48;95421.97;2068237;28;1519;-76
2022/06/17 01:24:17;;;;;;;;;;;;;;;21.83;42.82;95414.97;2067439;28;1554;-75
2022/06/17 01:25:26;;;;;;;;;;;;;;;21.83;42.74;95414.97;2064583;28;1444;-74
2022/06/17 01:26:31;;;;;;;;;;;;;;;21.87;42.70;95415.38;2063078;28;1583;-76
2022/06/17 01:27:40;;;;;;;;;;;;;;;21.85;42.77;95415.59;2058724;28;1705;-75
2022/06/17 01:28:44;;;;;;;;;;;;;;;21.87;42.70;95412.69;2059055;28;1727;-75
2022/06/17 01:29:47;;;;;;;;;;;;;;;21.92;42.73;95417.44;2058914;28;1701;-76
2022/06/17 01:30:58;;;;;;;;;;;;;;;21.87;42.73;95408.16;2060253;28;1283;-75
2022/06/17 01:32:02;;;;;;;;;;;;;;;21.88;43.04;95408.97;2059348;28;1076;-76
2022/06/17 01:33:08;;;;;;;;;;;;;;;21.86;42.91;95408.38;2060066;28;1910;-76
2022/06/17 01:34:13;;;;;;;;;;;;;;;21.84;42.58;95407.78;2059003;28;1643;-75
2022/06/17 01:35:21;;;;;;;;;;;;;;;21.83;42.86;95404.28;2059630;28;1516;-75
2022/06/17 01:36:26;;;;;;;;;;;;;;;21.83;42.82;95414.97;2059494;28;1688;-75
2022/06/17 01:37:32;;;;;;;;;;;;;;;21.81;42.74;95410.88;2050855;28;1758;-76
2022/06/17 01:38:37;;;;;;;;;;;;;;;21.79;42.74;95408.38;2057744;28;1520;-75
2022/06/17 01:39:43;;;;;;;;;;;;;;;21.79;43.03;95411.06;2059449;28;1528;-77
2022/06/17 01:40:55;;;;;;;;;;;;;;;21.83;42.89;95406.13;2053559;28;1651;-77
2022/06/17 01:41:58;;;;;;;;;;;;;;;21.86;42.83;95405.72;2051282;28;1541;-76
2022/06/17 01:43:04;;;;;;;;;;;;;;;21.87;43.15;95404.66;2051741;28;1578;-77
2022/06/17 01:44:07;;;;;;;;;;;;;;;21.85;43.04;95404.03;2059348;28;1311;-76
2022/06/17 01:45:19;;;;;;;;;;;;;;;21.82;43.12;95397.25;2055489;28;1551;-78
2022/06/17 01:46:25;;;;;;;;;;;;;;;21.82;42.78;95396.44;2056218;28;1713;-77
2022/06/17 01:47:57;;;;;;;;;;;;;;;21.80;42.96;95395.84;2053992;28;1654;-77
2022/06/17 01:49:05;;;;;;;;;;;;;;;21.77;43.27;95386.41;2055276;28;1358;-75
2022/06/17 01:50:15;;;;;;;;;;;;;;;21.76;43.28;95382.06;2058374;28;1706;-75
2022/06/17 01:51:20;;;;;;;;;;;;;;;21.80;43.42;95385.97;2058407;28;1666;-74
2022/06/17 01:52:45;;;;;;;;;;;;;;;21.79;43.37;95387.00;2050845;28;1717;-74
2022/06/17 01:53:53;;;;;;;;;;;;;;;21.73;43.11;95385.16;2054696;28;1990;-70
2022/06/17 01:54:58;;;;;;;;;;;;;;;21.72;43.14;95385.38;2058537;28;1049;-70
2022/06/17 01:56:02;;;;;;;;;;;;;;;21.73;43.30;95385.16;2058387;28;1523;-71
2022/06/17 01:57:06;;;;;;;;;;;;;;;21.76;43.45;95383.91;2058796;28;1717;-71
2022/06/17 01:58:11;;;;;;;;;;;;;;;21.77;43.20;95390.91;2058164;28;1842;-71
2022/06/17 01:59:16;;;;;;;;;;;;;;;21.75;43.22;95384.97;2059852;28;1573;-73
2022/06/17 02:00:19;;;;;;;;;;;;;;;21.76;43.33;95382.06;2053131;28;1644;-76
2022/06/17 02:01:23;;;;;;;;;;;;;;;21.76;43.53;95383.91;2058888;28;1124;-74
2022/06/17 02:02:26;;;;;;;;;;;;;;;21.70;43.20;95390.94;2059496;28;1147;-73
2022/06/17 02:03:32;;;;;;;;;;;;;;;21.72;43.38;95393.41;2058929;28;1526;-73
2022/06/17 02:04:36;;;;;;;;;;;;;;;21.70;43.65;95387.44;2059558;28;1550;-74
2022/06/17 02:05:41;;;;;;;;;;;;;;;21.66;43.48;95385.19;2058861;28;1156;-75
2022/06/17 02:06:47;;;;;;;;;;;;;;;21.68;43.34;95380.47;2059853;28;1084;-73
2022/06/17 02:07:52;;;;;;;;;;;;;;;21.70;42.91;95387.44;2051144;28;1005;-72
2022/06/17 02:08:57;;;;;;;;;;;;;;;21.71;42.84;95392.56;2051310;28;1107;-72
2022/06/17 02:09:59;;;;;;;;;;;;;;;21.71;43.31;95387.22;2052273;28;1522;-72
2022/06/17 02:11:04;;;;;;;;;;;;;;;21.72;43.49;95390.72;2056140;28;1116;-73
2022/06/17 02:12:13;;;;;;;;;;;;;;;21.68;43.30;95385.81;2056330;28;1650;-72
2022/06/17 02:13:17;;;;;;;;;;;;;;;21.64;43.30;95386.41;2058809;28;1911;-72
2022/06/17 02:14:20;;;;;;;;;;;;;;;21.61;43.67;95395.69;2059456;28;1053;-72
2022/06/17 02:15:34;;;;;;;;;;;;;;;21.62;43.76;95391.97;2056506;28;1548;-72
2022/06/17 02:16:44;;;;;;;;;;;;;;;21.63;43.94;95393.63;2051083;29;1673;-73
2022/06/17 02:17:59;;;;;;;;;;;;;;;;;;;;;
2022/06/17 02:19:08;;;;;;;;;;;;;;;21.74;43.85;95402.03;2050652;28;1572;-71
2022/06/17 02:20:13;;;;;;;;;;;;;;;21.70;43.73;95409.66;2051065;28;1529;-70
2022/06/17 02:21:20;;;;;;;;;;;;;;;21.67;43.86;95410.06;2051159;28;1029;-71
2022/06/17 02:22:25;;;;;;;;;;;;;;;21.68;43.71;95412.53;2048137;28;1251;-70
2022/06/17 02:23:30;;;;;;;;;;;;;;;21.67;43.83;95410.06;2047829;28;1314;-72
2022/06/17 02:24:38;;;;;;;;;;;;;;;21.67;43.62;95405.53;2059137;28;1599;-72
2022/06/17 02:25:44;;;;;;;;;;;;;;;21.66;44.13;95411.94;2058883;28;1017;-70
2022/06/17 02:26:47;;;;;;;;;;;;;;;21.68;44.01;95411.69;2060598;28;1328;-71
2022/06/17 02:27:57;;;;;;;;;;;;;;;21.63;43.86;95409.66;2061534;28;1548;-71
2022/06/17 02:29:02;;;;;;;;;;;;;;;21.59;44.08;95408.44;2058615;28;1701;-71
2022/06/17 02:30:14;;;;;;;;;;;;;;;;;;2059170;28;1671;-71
2022/06/17 02:31:18;;;;;;;;;;;;;;;21.59;43.98;95413.78;2058816;28;1575;-71
2022/06/17 02:32:21;;;;;;;;;;;;;;;21.62;44.33;95409.88;2059009;28;1042;-72
2022/06/17 02:33:24;;;;;;;;;;;;;;;21.60;43.78;95410.09;2058172;28;876;-73
2022/06/17 02:34:28;;;;;;;;;;;;;;;21.58;44.10;95414.00;2058308;28;1969;-72
2022/06/17 02:35:33;;;;;;;;;;;;;;;21.57;43.78;95407.00;2066924;28;1124;-71
2022/06/17 02:36:41;;;;;;;;;;;;;;;21.55;43.61;95417.91;2066871;28;1542;-71
2022/06/17 02:37:43;;;;;;;;;;;;;;;21.53;43.69;95411.94;2064254;28;1618;-72
2022/06/17 02:38:46;;;;;;;;;;;;;;;21.54;43.94;95402.91;2063877;28;1528;-71
2022/06/17 02:39:50;;;;;;;;;;;;;;;21.52;43.67;95410.31;2064531;28;1602;-73
2022/06/17 02:40:54;;;;;;;;;;;;;;;21.55;43.84;95409.88;2059088;28;1117;-72
2022/06/17 02:41:58;;;;;;;;;;;;;;;21.52;43.42;95407.63;2058667;28;1694;-72
2022/06/17 02:43:01;;;;;;;;;;;;;;;21.52;43.37;95410.31;2059928;28;1649;-70
2022/06/17 02:44:07;;;;;;;;;;;;;;;21.52;43.63;95407.63;2058611;28;1646;-71
2022/06/17 02:45:11;;;;;;;;;;;;;;;21.50;43.51;95404.34;2062713;28;1156;-70
2022/06/17 02:46:16;;;;;;;;;;;;;;;21.52;43.67;95407.63;2063818;28;1041;-70
2022/06/17 02:47:21;;;;;;;;;;;;;;;21.52;43.91;95407.63;2066304;28;1555;-70
2022/06/17 02:48:27;;;;;;;;;;;;;;;21.51;43.63;95403.28;2066048;28;1723;-70
2022/06/17 02:49:31;;;;;;;;;;;;;;;21.52;43.83;95402.28;2066915;28;985;-69
2022/06/17 02:50:34;;;;;;;;;;;;;;;21.53;43.51;95403.09;2066374;28;1646;-70
2022/06/17 02:51:38;;;;;;;;;;;;;;;21.54;43.83;95399.38;2066892;28;978;-69
2022/06/17 02:52:41;;;;;;;;;;;;;;;21.54;43.60;95397.56;2066867;28;1009;-70
2022/06/17 02:53:44;;;;;;;;;;;;;;;21.53;43.73;95405.78;2066838;28;1140;-69
2022/06/17 02:54:50;;;;;;;;;;;;;;;21.52;43.77;95406.81;2066467;28;1903;-71
2022/06/17 02:55:56;;;;;;;;;;;;;;;21.49;43.76;95402.69;2066801;28;1196;-69
2022/06/17 02:57:01;;;;;;;;;;;;;;;21.49;43.84;95401.88;2059917;28;1523;-69
2022/06/17 02:58:06;;;;;;;;;;;;;;;21.50;43.77;95403.50;2066004;28;1505;-69
2022/06/17 02:59:14;;;;;;;;;;;;;;;21.47;43.51;95396.72;2066726;28;1670;-69
2022/06/17 03:00:17;;;;;;;;;;;;;;;21.46;43.64;95400.44;2066353;28;1634;-70
2022/06/17 03:01:21;;;;;;;;;;;;;;;21.43;43.42;95398.19;2066834;28;1171;-70
2022/06/17 03:02:24;;;;;;;;;;;;;;;21.44;43.56;95402.50;2066729;28;1309;-73
2022/06/17 03:03:28;;;;;;;;;;;;;;;21.45;43.71;95406.81;2067206;28;1543;-74
2022/06/17 03:04:37;;;;;;;;;;;;;;;21.55;43.49;95409.06;2066082;28;1711;-73
2022/06/17 03:05:46;;;;;;;;;;;;;;;21.48;43.56;95410.91;2065638;28;1684;-73
2022/06/17 03:06:50;;;;;;;;;;;;;;;21.40;43.59;95414.66;2066997;28;1309;-74
2022/06/17 03:07:55;;;;;;;;;;;;;;;21.32;43.78;95414.84;2063024;28;1533;-75
2022/06/17 03:08:59;;;;;;;;;;;;;;;21.30;43.71;95414.22;2058136;28;1465;-74
2022/06/17 03:10:04;;;;;;;;;;;;;;;21.26;44.00;95413.00;2061279;28;1644;-75
2022/06/17 03:11:09;;;;;;;;;;;;;;;21.29;43.82;95415.28;2066528;28;1713;-74
2022/06/17 03:12:16;;;;;;;;;;;;;;;21.28;43.51;95418.94;2066087;28;1100;-74
2022/06/17 03:13:23;;;;;;;;;;;;;;;21.21;43.78;95411.75;2066523;28;1503;-73
2022/06/17 03:14:29;;;;;;;;;;;;;;;21.21;43.96;95410.94;2066468;28;1991;-74
2022/06/17 03:15:32;;;;;;;;;;;;;;;21.27;43.53;95415.47;2066598;28;1713;-73
2022/06/17 03:16:36;;;;;;;;;;;;;;;21.21;44.13;95416.28;2066993;28;1025;-72
2022/06/17 03:17:39;;;;;;;;;;;;;;;21.23;43.76;95412.38;2066121;28;1793;-74
2022/06/17 03:18:44;;;;;;;;;;;;;;;21.19;43.96;95408.47;2065525;28;1569;-74
2022/06/17 03:19:47;;;;;;;;;;;;;;;21.13;43.89;95408.44;2061917;28;1639;-73
2022/06/17 03:20:57;;;;;;;;;;;;;;;21.12;43.59;95407.63;2065809;28;1341;-74
2022/06/17 03:22:16;;;;;;;;;;;;;;;21.16;43.62;95414.19;2057388;28;1605;-71
2022/06/17 03:23:22;;;;;;;;;;;;;;;21.21;43.67;95401.06;2058275;28;1694;-71
2022/06/17 03:24:27;;;;;;;;;;;;;;;21.20;43.28;95407.47;2058962;28;1203;-72
2022/06/17 03:25:31;;;;;;;;;;;;;;;21.13;43.50;95409.25;2062247;28;1575;-72
2022/06/17 03:26:39;;;;;;;;;;;;;;;21.10;43.71;95407.00;2064288;28;1690;-72
2022/06/17 03:27:43;;;;;;;;;;;;;;;21.14;43.65;95410.06;2062307;28;1710;-75
2022/06/17 03:28:49;;;;;;;;;;;;;;;21.13;43.68;95409.25;2066249;28;1571;-71
2022/06/17 03:29:52;;;;;;;;;;;;;;;21.17;43.37;95410.53;2066616;28;1578;-72
2022/06/17 03:30:58;;;;;;;;;;;;;;;21.13;43.64;95416.47;2060400;28;1103;-73
2022/06/17 03:32:04;;;;;;;;;;;;;;;21.12;43.33;95412.16;2066863;28;1135;-73
2022/06/17 03:33:10;;;;;;;;;;;;;;;21.18;43.56;95411.34;2064419;28;1445;-74
2022/06/17 03:34:17;;;;;;;;;;;;;;;21.20;43.55;95415.47;2059071;28;1706;-73
2022/06/17 03:35:22;;;;;;;;;;;;;;;21.34;43.51;95413.63;2063446;28;1906;-74
2022/06/17 03:36:29;;;;;;;;;;;;;;;21.29;43.35;95412.59;2066302;28;1073;-74
2022/06/17 03:37:35;;;;;;;;;;;;;;;21.66;42.77;95419.13;2066401;28;1527;-74
2022/06/17 03:38:41;;;;;;;;;;;;;;;21.52;42.78;95412.97;2060600;28;1614;-75
2022/06/17 03:39:45;;;;;;;;;;;;;;;21.46;42.87;95416.47;2063904;28;1669;-73
2022/06/17 03:40:52;;;;;;;;;;;;;;;21.34;43.17;95407.44;2061234;28;1306;-73
2022/06/17 03:42:00;;;;;;;;;;;;;;;21.17;43.39;95407.88;2061955;28;1255;-73
2022/06/17 03:43:06;;;;;;;;;;;;;;;21.15;43.49;95412.56;2062713;28;1512;-71
2022/06/17 03:44:10;;;;;;;;;;;;;;;21.10;43.65;95415.00;2064417;28;1386;-72
2022/06/17 03:45:16;;;;;;;;;;;;;;;21.08;43.64;95410.91;2057470;28;1606;-77
2022/06/17 03:46:21;;;;;;;;;;;;;;;21.15;43.44;95417.91;2057333;28;1231;-75
2022/06/17 03:47:27;;;;;;;;;;;;;;;21.22;43.57;95412.56;2058259;28;1670;-70
2022/06/17 03:48:33;;;;;;;;;;;;;;;21.25;43.57;95422.84;2071384;22;1580;-74
2022/06/17 03:49:39;;;;;;;;;;;;;;;21.28;43.53;95426.97;2018398;28;10842;-73
2022/06/17 03:50:42;;;;;;;;;;;;;;;21.29;43.77;95428.63;2072616;28;1559;-70
2022/06/17 03:51:45;;;;;;;;;;;;;;;21.29;43.75;95425.97;2068175;28;1109;-75
2022/06/17 03:52:51;;;;;;;;;;;;;;;21.23;43.75;95424.94;2055414;28;1128;-74
2022/06/17 03:53:54;;;;;;;;;;;;;;;21.25;43.83;95425.53;2061226;28;1124;-71
2022/06/17 03:54:56;;;;;;;;;;;;;;;21.23;43.73;95420.41;2065181;28;2003;-74
2022/06/17 03:56:01;;;;;;;;;;;;;;;21.26;44.08;95424.50;2064941;28;1524;-74
2022/06/17 03:57:08;;;;;;;;;;;;;;;21.30;43.93;95430.25;2065054;28;1638;-75
2022/06/17 03:58:17;;;;;;;;;;;;;;;21.33;43.94;95435.19;2065568;28;1537;-75
2022/06/17 03:59:22;;;;;;;;;;;;;;;21.38;44.13;95432.72;2066060;28;1623;-72
2022/06/17 04:00:28;;;;;;;;;;;;;;;21.14;44.49;95434.97;2063646;28;1570;-74
2022/06/17 04:01:34;;;;;;;;;;;;;;;21.19;44.66;95437.84;2061629;28;1539;-73
2022/06/17 04:02:38;;;;;;;;;;;;;;;21.31;44.72;95434.56;2064996;28;1481;-76
2022/06/17 04:03:41;;;;;;;;;;;;;;;21.34;44.97;95435.00;2062607;28;1369;-75
2022/06/17 04:04:45;;;;;;;;;;;;;;;21.31;44.72;95437.25;2058585;28;1454;-74
2022/06/17 04:05:50;;;;;;;;;;;;;;;21.31;45.04;95442.59;2057167;28;1481;-74
2022/06/17 04:06:55;;;;;;;;;;;;;;;21.31;45.17;95438.06;2059645;28;1878;-74
2022/06/17 04:07:57;;;;;;;;;;;;;;;21.32;45.40;95437.06;2061540;28;2070;-74
2022/06/17 04:09:04;;;;;;;;;;;;;;;21.31;45.26;95438.06;2061898;28;2027;-74
2022/06/17 04:10:08;;;;;;;;;;;;;;;21.26;45.37;95439.75;2063171;28;1512;-73
2022/06/17 04:11:10;;;;;;;;;;;;;;;21.27;45.42;95441.38;2065033;28;1631;-73
2022/06/17 04:12:21;;;;;;;;;;;;;;;21.30;45.31;95440.97;2061807;28;1555;-73
2022/06/17 04:13:28;;;;;;;;;;;;;;;21.32;45.27;95445.06;2058370;28;1488;-74
2022/06/17 04:14:35;;;;;;;;;;;;;;;21.31;45.42;95442.59;2060345;28;1727;-74
2022/06/17 04:15:43;;;;;;;;;;;;;;;21.30;45.66;95440.97;2062781;28;1907;-74
2022/06/17 04:16:49;;;;;;;;;;;;;;;21.25;45.52;95438.06;2057901;28;1855;-74
2022/06/17 04:17:53;;;;;;;;;;;;;;;21.19;45.93;95434.38;2062630;28;2992;-74
2022/06/17 04:19:01;;;;;;;;;;;;;;;21.21;45.81;95437.66;2057816;28;1528;-76
2022/06/17 04:20:23;;;;;;;;;;;;;;;21.21;45.58;95433.13;2058044;28;950;-74
2022/06/17 04:21:27;;;;;;;;;;;;;;;21.17;45.83;95439.06;2059423;28;1547;-74
2022/06/17 04:22:31;;;;;;;;;;;;;;;21.19;45.87;95445.06;2059617;28;1117;-74
2022/06/17 04:23:36;;;;;;;;;;;;;;;21.22;45.97;95452.66;2060989;28;1902;-74
2022/06/17 04:24:39;;;;;;;;;;;;;;;21.17;46.35;95449.75;2059293;28;1100;-73
2022/06/17 04:25:44;;;;;;;;;;;;;;;21.12;45.38;95449.56;2060165;28;1140;-74
2022/06/17 04:26:48;;;;;;;;;;;;;;;21.09;45.44;95456.13;2058519;28;1281;-73
2022/06/17 04:27:56;;;;;;;;;;;;;;;21.08;45.29;95454.47;2053431;28;1037;-74
2022/06/17 04:29:01;;;;;;;;;;;;;;;21.07;45.32;95460.84;2059732;28;1088;-74
2022/06/17 04:30:06;;;;;;;;;;;;;;;21.06;44.84;95455.69;2059574;28;1018;-74
2022/06/17 04:31:11;;;;;;;;;;;;;;;21.01;44.88;95450.97;2060493;28;1559;-74
2022/06/17 04:32:16;;;;;;;;;;;;;;;21.02;44.85;95450.75;2059779;28;1053;-74
2022/06/17 04:33:25;;;;;;;;;;;;;;;21.04;45.16;95453.25;2060433;28;1013;-73
2022/06/17 04:34:27;;;;;;;;;;;;;;;21.06;44.86;95456.53;2059588;28;1073;-74
2022/06/17 04:37:03;;;;;;;;;;;;;;;21.07;44.74;95452.00;2059200;28;1212;-73
2022/06/17 04:38:09;;;;;;;;;;;;;;;21.05;44.92;95454.88;2059197;28;994;-76
2022/06/17 04:39:38;;;;;;;;;;;;;;;21.06;44.80;95451.19;2053674;28;1508;-76
2022/06/17 04:40:48;;;;;;;;;;;;;;;21.06;44.78;95450.34;2059421;28;1538;-78
2022/06/17 04:41:57;;;;;;;;;;;;;;;21.06;44.98;95453.88;2060133;28;1040;-74
2022/06/17 04:43:03;;;;;;;;;;;;;;;21.06;45.31;95450.34;2059208;28;1061;-73
2022/06/17 04:44:06;;;;;;;;;;;;;;;21.02;45.62;95445.41;2059553;28;1125;-74
2022/06/17 04:45:17;;;;;;;;;;;;;;;21.07;45.91;95450.16;2058779;28;1105;-74
2022/06/17 04:46:39;;;;;;;;;;;;;;;21.11;46.02;95448.72;2057866;28;1421;-75
2022/06/17 04:47:47;;;;;;;;;;;;;;;21.14;45.97;95437.66;2059076;28;1531;-74
2022/06/17 04:48:57;;;;;;;;;;;;;;;21.16;46.37;95446.25;2059026;28;1353;-74
2022/06/17 04:50:01;;;;;;;;;;;;;;;21.12;46.51;95438.88;2054946;28;1117;-74
2022/06/17 04:51:04;;;;;;;;;;;;;;;21.15;46.55;95444.63;2054909;28;1129;-74
2022/06/17 04:52:10;;;;;;;;;;;;;;;21.17;46.33;95442.59;2059262;28;994;-74
2022/06/17 04:53:13;;;;;;;;;;;;;;;21.19;46.70;95445.88;2059597;28;1010;-74
2022/06/17 04:54:16;;;;;;;;;;;;;;;21.25;46.54;95438.06;2059478;28;1181;-74
2022/06/17 04:55:21;;;;;;;;;;;;;;;21.28;46.12;95440.31;2059591;28;1017;-74
2022/06/17 04:56:26;;;;;;;;;;;;;;;21.32;46.23;95446.94;2059455;28;1906;-74
2022/06/17 04:57:30;;;;;;;;;;;;;;;21.33;46.52;95448.56;2059099;28;1136;-71
2022/06/17 04:58:35;;;;;;;;;;;;;;;21.33;46.48;95446.72;2059601;28;994;-73
2022/06/17 04:59:40;;;;;;;;;;;;;;;21.32;46.51;95450.41;2059951;28;1093;-72
2022/06/17 05:00:44;;;;;;;;;;;;;;;21.29;46.37;95442.81;2059585;28;981;-74
2022/06/17 05:01:50;;;;;;;;;;;;;;;21.29;46.60;95445.47;2053355;28;1710;-73
2022/06/17 05:02:54;;;;;;;;;;;;;;;21.28;46.64;95457.19;2059294;28;1527;-74
2022/06/17 05:03:59;;;;;;;;;;;;;;;21.27;46.72;95449.38;2059650;28;1693;-72
2022/06/17 05:05:05;;;;;;;;;;;;;;;21.29;46.72;95445.47;2059593;28;1010;-74
2022/06/17 05:06:09;;;;;;;;;;;;;;;21.33;46.59;95451.22;2059357;28;1487;-74
2022/06/17 05:07:15;;;;;;;;;;;;;;;21.35;46.26;95443.84;2060346;28;1041;-74
2022/06/17 05:08:20;;;;;;;;;;;;;;;21.32;46.71;95449.59;2059222;28;1930;-74
2022/06/17 05:09:28;;;;;;;;;;;;;;;21.29;46.95;95445.47;2060342;28;1642;-74
2022/06/17 05:10:35;;;;;;;;;;;;;;;21.33;46.92;95446.72;2059300;28;797;-74
2022/06/17 05:11:42;;;;;;;;;;;;;;;21.33;46.72;95443.22;2059370;28;1050;-72
2022/06/17 05:12:48;;;;;;;;;;;;;;;21.34;46.77;95442.19;2055590;28;1106;-73
2022/06/17 05:13:54;;;;;;;;;;;;;;;21.36;46.63;95443.63;2055167;28;1512;-73
2022/06/17 05:14:57;;;;;;;;;;;;;;;21.37;46.70;95442.59;2060030;28;1013;-73
2022/06/17 05:16:01;;;;;;;;;;;;;;;21.40;46.62;95446.72;2059070;28;1907;-73
2022/06/17 05:17:03;;;;;;;;;;;;;;;21.43;46.48;95439.09;2059759;28;994;-73
2022/06/17 05:18:06;;;;;;;;;;;;;;;21.44;46.79;95445.28;2058766;28;1552;-73
2022/06/17 05:19:08;;;;;;;;;;;;;;;21.45;46.90;95444.22;2059088;28;1914;-74
2022/06/17 05:20:13;;;;;;;;;;;;;;;21.42;46.70;95448.13;2059956;28;986;-74
2022/06/17 05:21:20;;;;;;;;;;;;;;;21.43;46.93;95446.31;2059373;28;1069;-74
2022/06/17 05:22:25;;;;;;;;;;;;;;;21.48;46.80;95449.16;2059965;28;1046;-74
2022/06/17 05:23:28;;;;;;;;;;;;;;;21.48;46.45;95443.81;2058955;28;1122;-74
2022/06/17 05:24:30;;;;;;;;;;;;;;;21.49;46.36;95439.31;2051399;28;1114;-74
2022/06/17 05:25:34;;;;;;;;;;;;;;;21.49;46.47;95439.31;2058721;28;1061;-74
2022/06/17 05:26:36;;;;;;;;;;;;;;;21.47;46.28;95436.03;2065751;28;1288;-74
2022/06/17 05:27:38;;;;;;;;;;;;;;;21.45;46.62;95436.22;2067869;28;1013;-73
2022/06/17 05:28:41;;;;;;;;;;;;;;;21.48;46.37;95440.31;2066981;28;1489;-74
2022/06/17 05:29:45;;;;;;;;;;;;;;;21.53;46.29;95435.19;2067937;28;1068;-74
2022/06/17 05:30:52;;;;;;;;;;;;;;;21.57;46.51;95434.56;2067276;28;1041;-74
2022/06/17 05:31:57;;;;;;;;;;;;;;;21.61;46.29;95437.66;2067226;28;1246;-74
2022/06/17 05:33:01;;;;;;;;;;;;;;;21.61;46.48;95434.97;2067079;28;1087;-76
2022/06/17 05:34:03;;;;;;;;;;;;;;;21.67;46.52;95439.50;2067248;28;1100;-75
2022/06/17 05:35:06;;;;;;;;;;;;;;;21.69;46.21;95442.78;2063828;28;1172;-74
2022/06/17 05:36:09;;;;;;;;;;;;;;;21.68;46.01;95443.78;2062801;28;1090;-74
2022/06/17 05:37:11;;;;;;;;;;;;;;;21.71;46.14;95446.06;2067041;28;1898;-74
2022/06/17 05:38:14;;;;;;;;;;;;;;;21.73;46.20;95444.00;2067761;28;1031;-72
2022/06/17 05:39:16;;;;;;;;;;;;;;;21.74;46.33;95447.50;2067047;28;1152;-74
2022/06/17 05:40:19;;;;;;;;;;;;;;;21.76;46.11;95437.41;2067618;28;1144;-74
2022/06/17 05:41:24;;;;;;;;;;;;;;;21.81;46.19;95434.94;2067372;28;1358;-74
2022/06/17 05:42:27;;;;;;;;;;;;;;;21.79;45.79;95428.97;2067340;28;1152;-74
2022/06/17 05:43:30;;;;;;;;;;;;;;;21.82;46.02;95433.91;2067291;28;1117;-74
2022/06/17 05:44:38;;;;;;;;;;;;;;;21.86;45.72;95435.13;2067103;28;1187;-73
2022/06/17 05:45:43;;;;;;;;;;;;;;;21.93;45.88;95424.41;2067775;28;1713;-73
2022/06/17 05:46:47;;;;;;;;;;;;;;;21.93;45.58;95433.25;2062876;28;1120;-74
2022/06/17 05:47:50;;;;;;;;;;;;;;;21.94;45.52;95434.91;2063456;28;1004;-73
2022/06/17 05:48:51;;;;;;;;;;;;;;;22.01;45.77;95426.91;2066776;28;1128;-74
2022/06/17 05:49:54;;;;;;;;;;;;;;;22.07;45.86;95426.03;2067121;28;1101;-74